Time;durP1;ratioP1;P1;durP2;ratioP2;P2;SDS_P1;SDS_P2;PMS_P1;PMS_P2;Temp;Humidity;BMP_temperature;BMP_pressure;BME280_temperature;BME280_humidity;BME280_pressure;Samples;Min_cycle;Max_cycle;Signal;HPM_P1;HPM_P2
2021/07/01 00:01:35;;;;;;;14.10;10.43;;;24.60;64.40;;;;;;5055405;28;20447;-76
2021/07/01 00:04:00;;;;;;;14.90;10.50;;;24.60;64.60;;;;;;5070968;28;20028;-75
2021/07/01 00:06:26;;;;;;;11.38;10.18;;;24.60;64.90;;;;;;5055391;28;20100;-75
2021/07/01 00:08:52;;;;;;;15.45;10.30;;;24.60;65.10;;;;;;5055108;28;20049;-74
2021/07/01 00:11:17;;;;;;;14.38;10.40;;;24.50;65.30;;;;;;5073377;28;20089;-75
2021/07/01 00:13:43;;;;;;;15.00;10.63;;;24.60;65.80;;;;;;5075290;28;20074;-75
2021/07/01 00:16:09;;;;;;;15.18;11.05;;;24.50;65.90;;;;;;5070455;28;20100;-75
2021/07/01 00:18:34;;;;;;;15.15;10.15;;;24.60;66.20;;;;;;5053814;28;20059;-76
2021/07/01 00:21:00;;;;;;;18.67;10.95;;;24.50;66.70;;;;;;5055164;28;20029;-75
2021/07/01 00:23:26;;;;;;;12.82;10.38;;;24.50;66.90;;;;;;5055188;28;20029;-75
2021/07/01 00:25:51;;;;;;;17.05;11.75;;;24.60;67.00;;;;;;5056077;28;20415;-75
2021/07/01 00:28:17;;;;;;;13.57;10.90;;;24.60;66.90;;;;;;5075000;28;20032;-75
2021/07/01 00:30:43;;;;;;;11.05;9.93;;;24.60;66.80;;;;;;5074816;28;20444;-75
2021/07/01 00:33:09;;;;;;;13.73;10.05;;;24.60;67.10;;;;;;5074870;28;20111;-75
2021/07/01 00:35:35;;;;;;;13.05;10.43;;;24.50;67.30;;;;;;5074487;28;20027;-76
2021/07/01 00:38:00;;;;;;;10.95;9.73;;;24.50;67.40;;;;;;5074879;28;20029;-75
2021/07/01 00:40:26;;;;;;;11.85;9.80;;;24.50;67.60;;;;;;5074700;28;20024;-75
2021/07/01 00:42:52;;;;;;;13.20;9.93;;;24.50;67.80;;;;;;5074752;28;20035;-75
2021/07/01 00:45:18;;;;;;;12.45;10.48;;;24.50;68.00;;;;;;5074820;28;20024;-75
2021/07/01 00:47:43;;;;;;;13.68;11.50;;;24.50;68.70;;;;;;5072462;28;20032;-75
2021/07/01 00:50:11;;;;;;;18.17;12.68;;;24.50;68.00;;;;;;5071935;28;20021;-75
2021/07/01 00:52:38;;;;;;;13.05;10.73;;;24.50;68.20;;;;;;5074685;28;20479;-76
2021/07/01 00:55:09;;;;;;;22.65;13.55;;;24.50;68.10;;;;;;5074457;28;20025;-75
2021/07/01 00:57:35;;;;;;;19.02;13.45;;;24.50;67.80;;;;;;5074343;28;20056;-75
2021/07/01 01:00:05;;;;;;;17.98;12.38;;;24.50;67.80;;;;;;5074634;28;20036;-75
2021/07/01 01:02:31;;;;;;;17.90;12.35;;;24.30;68.70;;;;;;5074275;28;20028;-75
2021/07/01 01:04:58;;;;;;;15.88;12.43;;;24.20;69.60;;;;;;5073780;28;20048;-75
2021/07/01 01:07:23;;;;;;;13.00;10.80;;;24.10;70.10;;;;;;5074117;28;20028;-73
2021/07/01 01:09:49;;;;;;;16.58;11.40;;;24.00;70.90;;;;;;5073761;28;20082;-75
2021/07/01 01:12:15;;;;;;;13.20;11.38;;;23.90;71.40;;;;;;5074060;28;20017;-75
2021/07/01 01:14:40;;;;;;;14.70;11.02;;;23.90;71.80;;;;;;5073822;28;20052;-75
2021/07/01 01:17:06;;;;;;;18.38;12.15;;;23.80;72.30;;;;;;5073789;28;20033;-75
2021/07/01 01:19:32;;;;;;;20.20;10.98;;;23.80;72.70;;;;;;5073910;28;20454;-75
2021/07/01 01:21:58;;;;;;;15.68;10.50;;;23.80;73.10;;;;;;5073785;28;20025;-75
2021/07/01 01:24:23;;;;;;;12.15;10.77;;;23.70;73.30;;;;;;5074047;28;20052;-75
2021/07/01 01:26:49;;;;;;;17.98;11.13;;;23.70;73.50;;;;;;5073517;28;20390;-75
2021/07/01 01:30:11;;;;;;;13.38;10.85;;;23.70;73.80;;;;;;5073777;28;20101;-74
2021/07/01 01:32:39;;;;;;;18.27;11.40;;;23.70;74.10;;;;;;5074201;28;20120;-74
2021/07/01 01:35:05;;;;;;;16.45;11.52;;;23.70;74.00;;;;;;5073800;28;20375;-74
2021/07/01 01:37:30;;;;;;;16.30;11.45;;;23.60;74.20;;;;;;5073804;28;20107;-74
2021/07/01 01:39:56;;;;;;;16.42;10.75;;;23.60;74.60;;;;;;5073512;28;20059;-75
2021/07/01 01:42:22;;;;;;;15.23;12.32;;;23.60;74.90;;;;;;5073878;28;20029;-75
2021/07/01 01:44:47;;;;;;;17.48;11.85;;;23.60;75.60;;;;;;5072278;28;20024;-74
2021/07/01 01:47:18;;;;;;;20.40;12.68;;;23.60;76.20;;;;;;5073628;28;20035;-74
2021/07/01 01:49:48;;;;;;;16.30;12.57;;;23.70;76.50;;;;;;5073413;28;20060;-74
2021/07/01 01:52:14;;;;;;;17.38;12.82;;;23.60;76.70;;;;;;5073437;28;20052;-74
2021/07/01 01:54:41;;;;;;;15.60;12.70;;;23.60;76.80;;;;;;5073703;28;20044;-75
2021/07/01 01:57:07;;;;;;;16.50;12.02;;;23.60;77.20;;;;;;5088521;28;20137;-75
2021/07/01 01:59:33;;;;;;;15.98;10.35;;;23.50;77.70;;;;;;5073564;28;20043;-75
2021/07/01 02:01:59;;;;;;;13.38;9.15;;;23.50;78.00;;;;;;5073294;28;20078;-75
2021/07/01 02:04:25;;;;;;;11.45;8.68;;;23.50;78.40;;;;;;5073160;28;20039;-75
2021/07/01 02:06:54;;;;;;;10.38;8.15;;;23.50;78.60;;;;;;5088861;28;20035;-75
2021/07/01 02:09:20;;;;;;;9.85;8.15;;;23.50;78.60;;;;;;5073428;28;20032;-74
2021/07/01 02:11:46;;;;;;;9.57;7.38;;;23.50;78.70;;;;;;5073365;28;20378;-74
2021/07/01 02:14:11;;;;;;;11.00;8.00;;;23.50;78.60;;;;;;5059147;28;20025;-74
2021/07/01 02:16:37;;;;;;;8.02;6.57;;;23.50;78.30;;;;;;5053282;28;20451;-74
2021/07/01 02:19:03;;;;;;;7.30;6.60;;;23.60;78.00;;;;;;5053176;28;20429;-74
2021/07/01 02:21:29;;;;;;;10.25;7.22;;;23.70;77.50;;;;;;5053035;28;20020;-74
2021/07/01 02:23:54;;;;;;;7.55;6.70;;;23.70;77.30;;;;;;5066886;28;20083;-75
2021/07/01 02:26:20;;;;;;;7.40;6.60;;;23.80;77.00;;;;;;5052864;28;20376;-73
2021/07/01 02:28:46;;;;;;;11.32;6.38;;;23.90;76.50;;;;;;5068859;28;20037;-75
2021/07/01 02:31:12;;;;;;;16.13;6.95;;;23.90;76.20;;;;;;5053721;28;20033;-74
2021/07/01 02:33:37;;;;;;;10.00;7.22;;;24.00;76.00;;;;;;5053593;28;20057;-74
2021/07/01 02:36:04;;;;;;;9.77;7.10;;;24.00;76.00;;;;;;5053594;28;20079;-75
2021/07/01 02:38:29;;;;;;;11.57;7.22;;;24.10;76.30;;;;;;5052797;28;20108;-76
2021/07/01 02:40:55;;;;;;;11.93;7.53;;;24.10;76.40;;;;;;5052834;28;20056;-76
2021/07/01 02:43:21;;;;;;;12.32;7.10;;;24.10;76.70;;;;;;5053217;28;20021;-75
2021/07/01 02:45:46;;;;;;;10.88;7.18;;;24.20;76.90;;;;;;5053835;28;20463;-75
2021/07/01 02:48:12;;;;;;;12.25;7.25;;;24.20;77.00;;;;;;5073019;28;20040;-75
2021/07/01 02:50:38;;;;;;;13.95;6.75;;;24.20;76.90;;;;;;5073104;28;20031;-75
2021/07/01 02:53:04;;;;;;;9.07;6.82;;;24.20;76.90;;;;;;5073304;28;20052;-75
2021/07/01 02:55:30;;;;;;;9.88;7.25;;;24.20;76.70;;;;;;5073072;28;20017;-75
2021/07/01 02:57:55;;;;;;;10.05;7.20;;;24.30;76.90;;;;;;5072900;28;20115;-75
2021/07/01 03:00:21;;;;;;;12.05;7.80;;;24.20;77.10;;;;;;5073001;28;20032;-75
2021/07/01 03:02:47;;;;;;;8.82;7.63;;;24.30;77.40;;;;;;5072865;28;20029;-75
2021/07/01 03:05:12;;;;;;;8.00;7.13;;;24.20;77.50;;;;;;5088541;28;20033;-75
2021/07/01 03:07:38;;;;;;;8.52;7.60;;;24.20;77.80;;;;;;5072556;28;20048;-74
2021/07/01 03:10:05;;;;;;;9.20;7.47;;;24.30;78.10;;;;;;5076274;28;20161;-74
2021/07/01 03:12:31;;;;;;;12.65;7.68;;;24.30;78.20;;;;;;5076367;28;20028;-75
2021/07/01 03:14:56;;;;;;;9.80;7.45;;;24.30;78.20;;;;;;5076224;28;20047;-75
2021/07/01 03:17:22;;;;;;;8.38;7.10;;;24.30;78.10;;;;;;5076163;28;20032;-75
2021/07/01 03:19:48;;;;;;;8.93;7.40;;;24.40;78.20;;;;;;5075960;28;20479;-75
2021/07/01 03:22:14;;;;;;;13.82;6.72;;;24.40;78.00;;;;;;5076145;28;20025;-75
2021/07/01 03:24:40;;;;;;;8.38;6.68;;;24.40;77.60;;;;;;5076233;28;20025;-75
2021/07/01 03:27:06;;;;;;;8.15;7.35;;;24.50;77.40;;;;;;5074605;28;20025;-75
2021/07/01 03:29:32;;;;;;;9.77;7.10;;;24.50;77.40;;;;;;5055772;28;20374;-75
2021/07/01 03:31:58;;;;;;;9.43;7.53;;;24.50;77.40;;;;;;5055974;28;20033;-75
2021/07/01 03:34:24;;;;;;;9.73;7.93;;;24.50;77.40;;;;;;5056193;28;20029;-75
2021/07/01 03:36:50;;;;;;;8.23;7.07;;;24.60;77.50;;;;;;5055981;28;20025;-75
2021/07/01 03:39:16;;;;;;;10.02;7.85;;;24.60;77.30;;;;;;5055792;28;20028;-75
2021/07/01 03:41:42;;;;;;;8.60;7.10;;;24.70;77.20;;;;;;5056017;28;20025;-75
2021/07/01 03:44:08;;;;;;;9.95;7.53;;;24.70;76.90;;;;;;5055553;28;20475;-75
2021/07/01 03:46:34;;;;;;;9.10;7.65;;;24.70;76.50;;;;;;5059829;28;20401;-75
2021/07/01 03:49:00;;;;;;;9.18;8.27;;;24.80;76.50;;;;;;5075724;28;20032;-75
2021/07/01 03:51:26;;;;;;;8.82;7.93;;;24.80;76.60;;;;;;5075565;28;20119;-75
2021/07/01 03:53:52;;;;;;;7.72;6.80;;;24.90;76.70;;;;;;5075739;28;20459;-75
2021/07/01 03:56:18;;;;;;;9.68;7.35;;;24.90;76.40;;;;;;5075523;28;20024;-75
2021/07/01 03:58:43;;;;;;;10.70;7.35;;;25.00;76.10;;;;;;5075641;28;20075;-74
2021/07/01 04:01:09;;;;;;;8.70;7.25;;;25.00;76.00;;;;;;5074290;28;20116;-74
2021/07/01 04:03:35;;;;;;;8.25;7.38;;;25.10;75.80;;;;;;5075478;28;20064;-74
2021/07/01 04:06:02;;;;;;;8.30;7.28;;;25.20;75.90;;;;;;5075314;28;20028;-76
2021/07/01 04:08:28;;;;;;;7.97;7.18;;;25.20;75.90;;;;;;5075343;28;20054;-74
2021/07/01 04:10:53;;;;;;;9.63;7.03;;;25.10;76.20;;;;;;5075299;28;20029;-74
2021/07/01 04:13:19;;;;;;;10.20;8.00;;;25.20;76.40;;;;;;5075289;28;20024;-74
2021/07/01 04:15:45;;;;;;;10.95;8.23;;;25.10;76.40;;;;;;5075202;28;20028;-74
2021/07/01 04:18:12;;;;;;;12.93;8.68;;;25.10;76.50;;;;;;5075361;28;20032;-76
2021/07/01 04:20:38;;;;;;;10.57;8.30;;;25.10;76.90;;;;;;5074678;28;20028;-75
2021/07/01 04:23:05;;;;;;;13.73;9.90;;;25.10;77.20;;;;;;5074726;28;20029;-75
2021/07/01 04:25:31;;;;;;;11.32;9.35;;;25.10;77.40;;;;;;5075251;28;20050;-75
2021/07/01 04:27:57;;;;;;;11.32;9.65;;;25.20;77.60;;;;;;5074915;28;20082;-76
2021/07/01 04:30:22;;;;;;;11.90;9.30;;;25.20;77.70;;;;;;5090626;28;20036;-76
2021/07/01 04:32:48;;;;;;;12.27;9.60;;;25.30;77.80;;;;;;5074680;28;20082;-75
2021/07/01 04:35:14;;;;;;;10.20;9.02;;;25.40;77.90;;;;;;5074659;28;20029;-76
2021/07/01 04:37:39;;;;;;;12.27;9.55;;;25.40;77.70;;;;;;5074980;28;20021;-75
2021/07/01 04:40:08;;;;;;;10.88;9.77;;;25.50;77.50;;;;;;5074601;28;20025;-75
2021/07/01 04:42:35;;;;;;;11.93;9.77;;;25.60;77.20;;;;;;5074820;28;20107;-75
2021/07/01 04:45:01;;;;;;;12.00;9.30;;;25.60;76.80;;;;;;5074171;28;20051;-75
2021/07/01 04:47:27;;;;;;;10.63;8.73;;;25.70;76.30;;;;;;5062265;28;20033;-76
2021/07/01 04:49:53;;;;;;;9.27;8.23;;;25.70;76.20;;;;;;5063082;28;20045;-76
2021/07/01 04:52:18;;;;;;;9.75;8.23;;;25.70;76.30;;;;;;5054707;28;20141;-76
2021/07/01 04:54:44;;;;;;;12.38;8.75;;;25.70;76.20;;;;;;5054495;28;20032;-76
2021/07/01 04:57:10;;;;;;;10.85;9.23;;;25.70;76.50;;;;;;5054324;28;20391;-76
2021/07/01 04:59:36;;;;;;;10.60;9.50;;;25.70;76.70;;;;;;5054219;28;20033;-76
2021/07/01 05:02:02;;;;;;;12.52;9.23;;;25.70;76.60;;;;;;5054143;28;20036;-76
2021/07/01 05:04:27;;;;;;;12.18;10.27;;;25.80;76.30;;;;;;5054007;28;20104;-76
2021/07/01 05:06:53;;;;;;;13.85;10.80;;;25.80;76.60;;;;;;5054083;28;20029;-74
2021/07/01 05:09:19;;;;;;;15.88;11.32;;;25.80;75.80;;;;;;5069536;28;20060;-75
2021/07/01 05:11:44;;;;;;;13.20;11.90;;;25.90;75.80;;;;;;5054192;28;20025;-75
2021/07/01 05:14:10;;;;;;;15.30;11.45;;;25.90;75.60;;;;;;5054117;28;20060;-74
2021/07/01 05:16:36;;;;;;;15.43;11.98;;;25.90;75.50;;;;;;5054118;28;20060;-76
2021/07/01 05:19:02;;;;;;;16.10;13.27;;;26.00;75.60;;;;;;5054311;28;20037;-75
2021/07/01 05:21:28;;;;;;;15.38;13.48;;;26.00;75.50;;;;;;5053896;28;20043;-75
2021/07/01 05:23:54;;;;;;;24.65;14.68;;;26.00;75.30;;;;;;5069272;28;20477;-76
2021/07/01 05:26:20;;;;;;;18.63;14.57;;;26.00;75.40;;;;;;5068997;28;20025;-75
2021/07/01 05:28:46;;;;;;;26.48;18.23;;;25.90;75.40;;;;;;5053867;28;20029;-75
2021/07/01 05:31:12;;;;;;;33.90;20.20;;;25.90;75.60;;;;;;5052870;28;20383;-75
2021/07/01 05:33:39;;;;;;;23.15;15.57;;;25.90;75.80;;;;;;5053145;28;20468;-75
2021/07/01 05:36:05;;;;;;;17.15;13.57;;;25.90;75.80;;;;;;5053384;28;20025;-75
2021/07/01 05:38:31;;;;;;;14.13;12.65;;;25.80;76.20;;;;;;5053787;28;20364;-76
2021/07/01 05:40:57;;;;;;;15.30;11.57;;;25.70;75.70;;;;;;5053449;28;20028;-76
2021/07/01 05:43:24;;;;;;;16.58;12.15;;;25.70;75.60;;;;;;5053679;28;20033;-75
2021/07/01 05:45:51;;;;;;;15.80;13.05;;;25.70;75.60;;;;;;5053854;28;20029;-75
2021/07/01 05:48:18;;;;;;;15.35;12.90;;;25.70;75.60;;;;;;5053041;28;20075;-75
2021/07/01 05:50:59;;;;;;;15.50;13.38;;;25.70;75.90;;;;;;5053249;28;20044;-75
2021/07/01 05:56:09;;;;;;;18.13;14.50;;;25.90;75.50;;;;;;5053329;28;20091;-75
2021/07/01 05:58:35;;;;;;;19.55;15.77;;;26.00;75.30;;;;;;5053505;28;20439;-75
2021/07/01 06:01:00;;;;;;;19.23;14.98;;;26.10;75.00;;;;;;5053357;28;20134;-75
2021/07/01 06:03:26;;;;;;;18.90;15.88;;;26.20;74.90;;;;;;5052357;28;20033;-75
2021/07/01 06:05:56;;;;;;;20.27;16.52;;;26.20;74.70;;;;;;5053501;28;20029;-75
2021/07/01 06:08:26;;;;;;;20.50;16.38;;;26.20;74.90;;;;;;5068668;28;20460;-75
2021/07/01 06:10:54;;;;;;;17.75;15.05;;;26.20;74.80;;;;;;5053458;28;20410;-76
2021/07/01 06:13:23;;;;;;;19.13;15.90;;;26.20;74.80;;;;;;5053260;28;20044;-76
2021/07/01 06:15:51;;;;;;;17.73;15.70;;;26.20;74.80;;;;;;5068817;28;20074;-75
2021/07/01 06:18:20;;;;;;;18.25;15.18;;;26.30;74.90;;;;;;5053198;28;20394;-76
2021/07/01 06:20:47;;;;;;;19.50;15.65;;;26.30;74.70;;;;;;5053362;28;20021;-76
2021/07/01 06:23:13;;;;;;;20.13;16.08;;;26.40;74.40;;;;;;5052950;28;20471;-77
2021/07/01 06:25:39;;;;;;;17.80;14.65;;;26.50;74.20;;;;;;5053582;28;20049;-76
2021/07/01 06:28:05;;;;;;;17.73;15.07;;;26.60;73.90;;;;;;5052943;28;20064;-75
2021/07/01 06:30:35;;;;;;;16.38;14.48;;;26.60;73.80;;;;;;5053150;28;20040;-75
2021/07/01 06:33:01;;;;;;;20.38;15.90;;;26.70;73.70;;;;;;5073675;28;20029;-76
2021/07/01 06:35:28;;;;;;;16.73;15.02;;;26.80;73.70;;;;;;5067339;28;20029;-75
2021/07/01 06:37:57;;;;;;;21.80;15.57;;;26.90;73.70;;;;;;5072273;28;20017;-77
2021/07/01 06:40:25;;;;;;;19.25;15.00;;;27.10;73.10;;;;;;5069452;28;20032;-75
2021/07/01 06:42:58;;;;;;;22.58;15.32;;;27.30;72.80;;;;;;5072793;28;20036;-75
2021/07/01 06:45:25;;;;;;;17.85;15.20;;;27.40;71.90;;;;;;5076718;28;20032;-75
2021/07/01 06:47:54;;;;;;;16.00;14.35;;;27.40;71.80;;;;;;5076384;28;20029;-75
2021/07/01 06:50:27;;;;;;;16.80;14.68;;;27.50;71.70;;;;;;5072257;28;20455;-78
2021/07/01 06:52:55;;;;;;;18.38;14.32;;;27.60;71.30;;;;;;5059206;28;20532;-75
2021/07/01 06:55:22;;;;;;;18.77;14.65;;;27.80;71.20;;;;;;5075412;28;20036;-75
2021/07/01 06:57:48;;;;;;;19.95;14.65;;;27.90;70.90;;;;;;5074640;28;20099;-75
2021/07/01 07:00:17;;;;;;;15.52;13.93;;;28.00;70.50;;;;;;5073768;28;20031;-74
2021/07/01 07:02:43;;;;;;;16.95;14.88;;;28.20;70.10;;;;;;5070870;28;20123;-76
2021/07/01 07:05:12;;;;;;;18.05;15.93;;;28.20;69.80;;;;;;5076532;28;20086;-75
2021/07/01 07:07:42;;;;;;;18.73;14.13;;;28.30;69.40;;;;;;5075382;28;20031;-74
2021/07/01 07:10:10;;;;;;;18.98;14.27;;;28.30;69.10;;;;;;5076280;28;20036;-75
2021/07/01 07:12:46;;;;;;;20.88;14.57;;;28.40;69.00;;;;;;5090925;28;20024;-78
2021/07/01 07:15:16;;;;;;;17.98;14.85;;;28.50;68.90;;;;;;5058956;28;20126;-75
2021/07/01 07:17:42;;;;;;;21.35;16.90;;;28.60;68.90;;;;;;5056109;28;20114;-75
2021/07/01 07:20:09;;;;;;;21.17;16.40;;;28.80;68.90;;;;;;5056042;28;20035;-76
2021/07/01 07:22:39;;;;;;;18.35;15.50;;;28.80;68.70;;;;;;5056443;28;20025;-75
2021/07/01 07:25:07;;;;;;;19.20;15.88;;;29.00;68.50;;;;;;5056064;28;20023;-75
2021/07/01 07:27:36;;;;;;;18.88;16.20;;;29.10;68.20;;;;;;5056779;28;20482;-75
2021/07/01 07:30:03;;;;;;;18.98;14.50;;;29.30;67.90;;;;;;5056992;28;20116;-77
2021/07/01 07:32:30;;;;;;;18.40;14.63;;;29.50;67.50;;;;;;5075713;28;20538;-76
2021/07/01 07:34:56;;;;;;;19.45;15.55;;;29.70;67.10;;;;;;5091344;28;20112;-76
2021/07/01 07:37:21;;;;;;;17.50;15.60;;;29.90;66.80;;;;;;5075477;28;20048;-77
2021/07/01 07:39:48;;;;;;;19.38;17.02;;;30.10;66.20;;;;;;5090547;28;20470;-77
2021/07/01 07:42:16;;;;;;;18.83;14.65;;;30.20;65.60;;;;;;5075182;28;20024;-75
2021/07/01 07:44:43;;;;;;;21.85;16.02;;;30.40;65.30;;;;;;5072598;28;20063;-75
2021/07/01 07:47:14;;;;;;;18.63;13.80;;;30.60;64.90;;;;;;5074965;28;20017;-76
2021/07/01 07:49:41;;;;;;;14.75;12.40;;;30.80;63.90;;;;;;5073106;28;20486;-75
2021/07/01 07:52:09;;;;;;;19.35;13.30;;;30.90;62.80;;;;;;5075602;28;20045;-75
2021/07/01 07:54:47;;;;;;;12.85;11.35;;;30.90;62.40;;;;;;5074713;28;20108;-76
2021/07/01 07:57:14;;;;;;;14.00;11.05;;;30.90;60.80;;;;;;5075460;28;20051;-76
2021/07/01 07:59:43;;;;;;;15.55;12.43;;;30.80;60.80;;;;;;5075548;28;20047;-75
2021/07/01 08:02:38;;;;;;;16.90;11.35;;;30.80;61.00;;;;;;5075383;28;20017;-76
2021/07/01 08:05:04;;;;;;;18.60;14.10;;;30.80;60.50;;;;;;5067900;28;20043;-75
2021/07/01 08:07:32;;;;;;;14.18;12.52;;;31.00;61.40;;;;;;5075384;28;20036;-75
2021/07/01 08:10:07;;;;;;;17.27;14.15;;;31.20;61.00;;;;;;5074977;28;20081;-76
2021/07/01 08:12:34;;;;;;;16.65;14.90;;;31.40;61.30;;;;;;5074912;28;20033;-76
2021/07/01 08:15:00;;;;;;;17.35;15.00;;;31.60;61.30;;;;;;5074872;28;20020;-75
2021/07/01 08:17:27;;;;;;;18.45;14.98;;;31.80;61.30;;;;;;5075079;28;20025;-76
2021/07/01 08:19:53;;;;;;;20.80;14.55;;;31.90;61.30;;;;;;5074578;28;20025;-75
2021/07/01 08:22:21;;;;;;;21.13;15.02;;;32.00;61.10;;;;;;5074687;28;20029;-75
2021/07/01 08:24:50;;;;;;;17.60;14.30;;;32.00;60.70;;;;;;5073529;28;20025;-75
2021/07/01 08:27:17;;;;;;;19.23;14.35;;;32.10;60.70;;;;;;5090457;28;20024;-75
2021/07/01 08:29:44;;;;;;;17.55;14.63;;;32.10;60.10;;;;;;5075046;28;20036;-75
2021/07/01 08:32:10;;;;;;;18.55;15.38;;;32.00;60.10;;;;;;5073724;28;20036;-76
2021/07/01 08:34:39;;;;;;;17.73;14.40;;;32.00;60.40;;;;;;5075093;28;20024;-76
2021/07/01 08:37:05;;;;;;;18.10;15.30;;;32.00;60.30;;;;;;5074391;28;20024;-76
2021/07/01 08:39:33;;;;;;;17.95;14.40;;;32.10;60.30;;;;;;5075140;28;20024;-76
2021/07/01 08:42:02;;;;;;;17.58;15.50;;;32.20;60.40;;;;;;5074444;28;20024;-75
2021/07/01 08:44:40;;;;;;;20.55;14.23;;;32.40;60.30;;;;;;5074310;28;20036;-76
2021/07/01 08:47:19;;;;;;;20.10;15.73;;;32.50;60.00;;;;;;5074709;28;20043;-75
2021/07/01 08:49:53;;;;;;;15.77;14.23;;;32.60;59.70;;;;;;5074133;28;20115;-75
2021/07/01 08:52:23;;;;;;;20.10;13.38;;;32.80;59.60;;;;;;5074120;28;20038;-75
2021/07/01 08:54:57;;;;;;;15.52;12.65;;;33.00;59.20;;;;;;5074277;28;20020;-74
2021/07/01 08:57:36;;;;;;;14.55;10.18;;;33.10;57.70;;;;;;5074376;28;20032;-75
2021/07/01 09:00:13;;;;;;;17.85;10.77;;;33.10;56.80;;;;;;5074299;28;20119;-75
2021/07/01 09:02:42;;;;;;;12.45;10.10;;;33.00;56.30;;;;;;5054172;28;20457;-75
2021/07/01 09:05:15;;;;;;;14.63;10.48;;;32.90;56.30;;;;;;5063487;28;20448;-75
2021/07/01 09:07:50;;;;;;;13.52;10.43;;;32.70;56.50;;;;;;5074841;28;20039;-75
2021/07/01 09:10:16;;;;;;;14.68;10.63;;;32.60;56.80;;;;;;5074203;28;20060;-75
2021/07/01 09:12:51;;;;;;;12.40;10.02;;;32.70;56.90;;;;;;5073910;28;20027;-75
2021/07/01 09:15:16;;;;;;;15.07;10.25;;;32.90;56.40;;;;;;5073977;28;20016;-75
2021/07/01 09:17:48;;;;;;;13.20;10.32;;;33.10;56.20;;;;;;5072917;28;20031;-75
2021/07/01 09:23:42;;;;;;;12.45;10.20;;;33.50;55.50;;;;;;5074220;28;20023;-75
2021/07/01 09:26:10;;;;;;;19.23;15.15;;;33.90;55.70;;;;;;5073592;28;20466;-76
2021/07/01 09:28:36;;;;;;;21.65;16.63;;;34.40;55.40;;;;;;5073946;28;20103;-75
2021/07/01 09:31:03;;;;;;;28.73;19.50;;;34.90;55.40;;;;;;5068290;28;20032;-76
2021/07/01 09:33:29;;;;;;;25.90;18.95;;;35.20;55.10;;;;;;5053624;28;20035;-75
2021/07/01 09:35:55;;;;;;;26.38;20.08;;;35.40;55.00;;;;;;5058834;28;20032;-76
2021/07/01 09:38:25;;;;;;;21.23;18.08;;;35.60;54.40;;;;;;5074886;28;20417;-75
2021/07/01 09:40:51;;;;;;;25.88;19.15;;;36.00;54.30;;;;;;5082316;28;20023;-77
2021/07/01 09:43:21;;;;;;;20.23;17.45;;;36.20;53.70;;;;;;5080910;28;20033;-77
2021/07/01 09:45:50;;;;;;;28.27;17.55;;;36.40;53.40;;;;;;5077466;28;20024;-77
2021/07/01 09:48:19;;;;;;;23.15;17.70;;;36.40;53.10;;;;;;5080591;28;20043;-76
2021/07/01 09:50:47;;;;;;;20.73;17.83;;;36.50;53.10;;;;;;5081512;28;20020;-77
2021/07/01 09:53:28;;;;;;;21.63;17.73;;;36.70;52.70;;;;;;5078156;28;20214;-77
2021/07/01 09:56:03;;;;;;;26.65;18.73;;;36.90;52.40;;;;;;5080694;28;20031;-77
2021/07/01 09:58:31;;;;;;;22.80;19.33;;;36.90;52.00;;;;;;5076031;28;20398;-76
2021/07/01 10:00:57;;;;;;;21.63;18.02;;;36.90;52.00;;;;;;5080649;28;20041;-77
2021/07/01 10:03:23;;;;;;;21.02;17.23;;;37.00;51.90;;;;;;5081213;28;20117;-76
2021/07/01 10:05:48;;;;;;;18.52;15.68;;;37.30;52.00;;;;;;5071653;28;20052;-77
2021/07/01 10:08:14;;;;;;;18.25;15.77;;;37.50;51.60;;;;;;5080235;28;20035;-78
2021/07/01 10:10:50;;;;;;;18.25;16.35;;;37.50;51.50;;;;;;5083077;28;20035;-75
2021/07/01 10:13:18;;;;;;;18.77;16.25;;;37.20;51.50;;;;;;5080824;28;20409;-75
2021/07/01 10:15:46;;;;;;;18.13;15.68;;;36.70;51.90;;;;;;5087054;28;20197;-75
2021/07/01 10:18:13;;;;;;;22.23;16.95;;;36.50;52.50;;;;;;5094234;28;20024;-76
2021/07/01 10:20:54;;;;;;;19.23;16.10;;;36.60;52.40;;;;;;5097972;28;20359;-75
2021/07/01 10:23:27;;;;;;;19.08;15.65;;;36.70;52.20;;;;;;5097370;28;20025;-75
2021/07/01 10:25:58;;;;;;;21.38;17.02;;;36.80;52.10;;;;;;5096607;28;20394;-75
2021/07/01 10:28:26;;;;;;;17.63;15.60;;;36.90;51.90;;;;;;5097658;28;20035;-77
2021/07/01 10:31:14;;;;;;;17.58;15.70;;;36.90;51.90;;;;;;5097259;28;20028;-76
2021/07/01 10:33:43;;;;;;;19.48;15.35;;;37.20;52.40;;;;;;5097623;28;20093;-75
2021/07/01 10:36:24;;;;;;;23.00;15.68;;;37.40;51.10;;;;;;5096963;28;20050;-76
2021/07/01 10:38:51;;;;;;;17.13;15.02;;;37.80;50.90;;;;;;5097177;28;20377;-75
2021/07/01 10:41:27;;;;;;;18.95;15.43;;;38.00;50.80;;;;;;5097027;28;20099;-76
2021/07/01 10:43:53;;;;;;;17.52;14.30;;;38.20;50.30;;;;;;5097150;28;20466;-75
2021/07/01 10:46:19;;;;;;;16.90;14.05;;;38.40;49.80;;;;;;5097158;28;20031;-76
2021/07/01 10:48:56;;;;;;;18.02;14.13;;;38.60;49.40;;;;;;5096840;28;20044;-75
2021/07/01 10:51:23;;;;;;;17.98;13.38;;;38.90;49.20;;;;;;5097088;28;20140;-75
2021/07/01 10:53:49;;;;;;;15.63;13.93;;;39.30;48.80;;;;;;5095946;28;20442;-76
2021/07/01 10:56:21;;;;;;;16.80;13.40;;;39.50;48.40;;;;;;5086306;28;20048;-76
2021/07/01 10:58:58;;;;;;;16.10;13.20;;;39.80;48.20;;;;;;5076391;28;20074;-76
2021/07/01 11:01:26;;;;;;;15.63;13.95;;;40.20;47.50;;;;;;5075188;28;20024;-77
2021/07/01 11:04:08;;;;;;;15.23;13.65;;;40.40;47.00;;;;;;5076012;28;20027;-77
2021/07/01 11:06:36;;;;;;;17.87;14.37;;;40.70;46.60;;;;;;5076157;28;20056;-75
2021/07/01 11:09:04;;;;;;;15.60;13.40;;;40.90;46.70;;;;;;5076087;28;20755;-75
2021/07/01 11:11:33;;;;;;;14.75;13.23;;;41.10;46.40;;;;;;5076299;28;20086;-76
2021/07/01 11:14:02;;;;;;;15.98;14.13;;;41.20;46.20;;;;;;5073697;28;20036;-74
2021/07/01 11:16:42;;;;;;;16.10;14.55;;;41.30;46.20;;;;;;5076471;28;20033;-76
2021/07/01 11:19:10;;;;;;;17.15;13.30;;;41.50;46.10;;;;;;5062127;28;20036;-76
2021/07/01 11:21:36;;;;;;;17.15;13.18;;;41.50;45.90;;;;;;5056320;28;20037;-76
2021/07/01 11:24:15;;;;;;;15.02;13.48;;;41.40;45.90;;;;;;5056317;28;20040;-77
2021/07/01 11:26:44;;;;;;;19.17;13.18;;;41.40;45.80;;;;;;5056222;28;20028;-75
2021/07/01 11:29:12;;;;;;;14.38;12.25;;;41.20;45.80;;;;;;5055693;28;20025;-75
2021/07/01 11:31:43;;;;;;;17.02;13.25;;;41.10;45.90;;;;;;5055157;28;20065;-75
2021/07/01 11:34:10;;;;;;;20.48;12.02;;;41.00;46.10;;;;;;5071265;28;20110;-78
2021/07/01 11:36:46;;;;;;;13.27;11.93;;;41.10;46.20;;;;;;5055810;28;20394;-76
2021/07/01 11:39:13;;;;;;;14.55;12.63;;;41.20;46.10;;;;;;5055528;28;20025;-76
2021/07/01 11:41:42;;;;;;;15.32;12.57;;;41.30;46.00;;;;;;5067733;28;20024;-76
2021/07/01 11:44:10;;;;;;;15.40;11.50;;;41.30;45.90;;;;;;5076001;28;20029;-77
2021/07/01 11:46:36;;;;;;;18.15;13.32;;;41.40;45.90;;;;;;5069418;28;20021;-76
2021/07/01 11:49:07;;;;;;;13.02;11.48;;;41.50;45.70;;;;;;5056558;28;20356;-76
2021/07/01 11:51:35;;;;;;;14.38;12.32;;;41.50;45.70;;;;;;5055551;28;20033;-76
2021/07/01 11:54:01;;;;;;;15.75;12.48;;;41.60;45.80;;;;;;5055565;28;20021;-76
2021/07/01 11:56:29;;;;;;;14.60;12.63;;;41.80;45.60;;;;;;5055616;28;20063;-75
2021/07/01 11:59:24;;;;;;;14.85;11.48;;;42.00;45.30;;;;;;5061173;28;20044;-76
2021/07/01 12:01:50;;;;;;;15.05;12.80;;;42.20;45.20;;;;;;5064042;28;20068;-75
2021/07/01 12:04:17;;;;;;;13.50;11.05;;;42.50;44.90;;;;;;5075091;28;20028;-78
2021/07/01 12:07:04;;;;;;;18.00;12.10;;;42.70;44.50;;;;;;5074983;28;20043;-78
2021/07/01 12:09:31;;;;;;;16.80;11.70;;;43.10;44.80;;;;;;5074976;28;20101;-77
2021/07/01 12:12:02;;;;;;;13.93;11.30;;;43.30;44.00;;;;;;5074783;28;20024;-77
2021/07/01 12:14:39;;;;;;;11.32;10.20;;;43.60;43.70;;;;;;5075148;28;20108;-76
2021/07/01 12:17:05;;;;;;;14.63;10.98;;;44.00;43.60;;;;;;5075577;28;20028;-76
2021/07/01 12:19:46;;;;;;;12.52;10.48;;;44.20;43.30;;;;;;5074952;28;20489;-75
2021/07/01 12:22:44;;;;;;;14.77;10.80;;;44.60;43.00;;;;;;5072304;28;20025;-76
2021/07/01 12:25:32;;;;;;;14.00;10.25;;;44.80;42.70;;;;;;5075140;28;20029;-76
2021/07/01 12:28:19;;;;;;;14.00;11.40;;;45.00;42.40;;;;;;5075191;28;20418;-76
2021/07/01 12:30:50;;;;;;;14.10;10.32;;;45.30;42.00;;;;;;5075106;28;20025;-76
2021/07/01 12:33:36;;;;;;;17.13;10.65;;;44.90;41.80;;;;;;5074937;28;20370;-77
2021/07/01 12:36:20;;;;;;;12.00;9.75;;;43.80;42.60;;;;;;5074884;28;20374;-77
2021/07/01 12:39:07;;;;;;;14.73;10.52;;;43.20;43.60;;;;;;5074825;28;20033;-77
2021/07/01 12:42:09;;;;;;;13.32;11.27;;;43.50;43.60;;;;;;5074316;28;20183;-77
2021/07/01 12:44:38;;;;;;;11.80;10.60;;;44.10;43.20;;;;;;5061891;28;20029;-76